Tiempo atmosférico en la estación meteorológica de Calatayud, Zaragoza (600 m.)



Fecha
DESCASC
Temp. máxima en grados centígrados (hora)
DESCASC
Temp. mínima en grados centígrados (hora)
DESCASC
Temp. media en grados centígrados
DESCASC
Racha de viento máxima en m/sg (hora)
DESCASC
Velocidad máxima media en intervalos de 10 minutos(hora)
DESCASC
Precipitaciones diarias en mm
DESCASC
Precipitaciones de 00:00 a 06:00 en mm
DESCASC
Precipitaciones de 06:00 a 12:00 en mm
DESCASC
Precipitaciones de 12:00 a 18:00 en mm
DESCASC
Precipitaciones de 18:00 a 24:00 en mm
DESCASC
11-12-2019 9 (16:30) 1.5 (07:10) 5.3 9.17 (15:50) 5.83 (15:50) 0.6 0 0.2 0.4 0
08-12-2019 12.6 (13:50) -1.7 (-00:0) 5.5 7.5 (16:30) 4.44 (16:30) 3.8 0 0 1.4 2.4
07-12-2019 10.8 (17:00) 1.2 (00:00) 6 3.33 (21:40) 1.94 (21:30) 0 0 0 0 0
06-12-2019 14.1 (15:10) 3.8 (00:00) 9 3.61 (01:10) 2.78 (20:30) 0 0 0 0 0
05-12-2019 10.8 (15:30) 6.3 (00:00) 8.6 8.33 (00:20) 6.39 (00:20) 0 0 0 0 0
04-12-2019 8.8 (15:00) 2.9 (00:50) 5.9 10.83 (21:10) 7.22 (22:40) 1.2 0.4 0 0.8 0
03-12-2019 7.2 (15:50) 1 (00:00) 4.1 6.94 (16:00) 5 (16:00) 0 0 0 0 0
02-12-2019 11.6 (14:40) 1.9 (00:00) 6.8 7.5 (16:10) 5 (16:10) 0 0 0 0 0
01-12-2019 13 (14:40) 1.4 (00:00) 7.2 5 (01:00) 3.33 (01:10) 0.4 0.4 0 0 0
30-11-2019 18.1 (13:30) 6.7 (00:00) 12.4 12.78 (14:30) 7.78 (14:30) 2.8 0 0 0 2.8
29-11-2019 17.5 (15:40) 9.4 (00:00) 13.4 7.78 (14:00) 4.72 (12:30) 0 0 0 0 0
28-11-2019 16.1 (13:30) 9.6 (07:50) 12.9 12.5 (13:30) 7.5 (14:50) 0 0 0 0 0
27-11-2019 16.3 (14:30) 10.6 (00:00) 13.4 15.28 (00:20) 8.33 (04:50) 0 0 0 0 0
26-11-2019 18.4 (14:10) 7.9 (00:00) 13.1 12.78 (23:30) 6.94 (23:30) 0 0 0 0 0
25-11-2019 15.2 (13:40) 6.8 (03:30) 11 10.28 (11:20) 6.39 (12:00) 0.2 0.2 0 0 0
24-11-2019 11.6 (15:00) 5.5 (00:00) 8.6 10.83 (16:10) 6.94 (16:10) 0 0 0 0 0
23-11-2019 12.3 (15:30) 6.2 (00:00) 9.3 17.78 (13:20) 10.56 (14:40) 6 4.2 1.8 0 0
22-11-2019 13.8 (15:50) 2.3 (00:00) 8.1 13.61 (21:00) 8.33 (21:20) 3.8 0 0 0.8 3
21-11-2019 12.9 (16:20) 2.4 (00:00) 7.6 7.78 (15:20) 4.72 (15:30) 0 0 0 0 0
20-11-2019 11.8 (16:00) -0.9 (08:00) 5.5 5.56 (19:50) 3.61 (19:50) 1 0 0 0 1
19-11-2019 11.9 (15:40) -2 (-00:0) 4.9 7.22 (14:30) 4.17 (14:40) 0 0 0 0 0
18-11-2019 10.4 (14:10) 1.4 (00:00) 5.9 13.61 (14:40) 8.61 (14:40) 0 0 0 0 0
17-11-2019 10.1 (13:30) 3.1 (00:00) 6.6 11.67 (14:00) 7.22 (13:40) 0.8 0 0 0 0.8
16-11-2019 8.5 (16:50) -0.2 (00:00) 4.1 10.28 (14:30) 6.67 (14:30) 0 0 0 0 0
15-11-2019 8.7 (16:00) 2.9 (00:00) 5.8 15 (13:10) 9.17 (13:10) 0 0 0 0 0

Gráficas

Temp. máximas Temp. mínimas Temp. medias Precipitaciones Rachas de viento máximas Velocidades máximas media en intervalos de 10 minutos

Datos horarios

Fecha y hora oficial Temperatura (ºC) Velocidad del viento (km/h) Dirección del viento Racha (km/h) Dirección de racha Precipitación (mm) Presión (hPa) Tendencia (hPa) Humedad (%)
2019-12-14 23:00:00 9.9 6 Sur 12 Sur 0 948.7 0.1 65
2019-12-14 22:00:00 10.2 7 Sudoeste 21 Sudoeste 0 948.5 0.2 64
2019-12-14 21:00:00 10.4 10 Sudoeste 22 Sudoeste 0 948.6 0.7 63
2019-12-14 20:00:00 10.8 9 Sudoeste 26 Oeste 0 948.6 0.7 60
2019-12-14 19:00:00 11.4 9 Sudoeste 21 Sudoeste 0 948.3 0.6 58
2019-12-14 18:00:00 11.4 14 Sudoeste 29 Sudoeste 0 947.9 -0.1 56
2019-12-14 17:00:00 12.7 17 Sudoeste 40 Oeste 0 947.9 -0.7 50
2019-12-14 16:00:00 13.1 13 Sudoeste 34 Sudoeste 0 947.7 -1.2 50
2019-12-14 15:00:00 14.1 21 Sudoeste 44 Oeste 0 948 -1.9 48
2019-12-14 14:00:00 13.2 26 Oeste 43 Oeste 0 948.6 -1.8 47
2019-12-14 13:00:00 13.1 17 Oeste 36 Oeste 0 948.9 -1.5 51
2019-12-14 12:00:00 11.9 18 Sudoeste 32 Sudoeste 0 949.9 -0.2 55
2019-12-14 11:00:00 11 8 Sudoeste 23 Oeste 0 950.4 1.1 61
2019-12-14 10:00:00 10 15 Sudoeste 26 Sudoeste 0 950.4 1.8 64
2019-12-14 09:00:00 9.8 9 Sudoeste 31 Oeste 0 950.1 1.8 64
2019-12-14 08:00:00 10.5 13 Sudoeste 24 Sudoeste 0 949.3 1.2 60
2019-12-14 07:00:00 10.9 14 Sudoeste 30 Oeste 0 948.6 0 60
2019-12-14 06:00:00 11.1 15 Oeste 27 Oeste 0 948.3 0.1 60
2019-12-14 05:00:00 11.8 20 Oeste 33 Oeste 0 948.1 0.6 57
2019-12-14 04:00:00 12 13 Oeste 37 Oeste 0 948.6 1.2 58
2019-12-14 03:00:00 12.3 17 Oeste 37 Oeste 0 948.2 1.2 59
2019-12-14 02:00:00 12.4 17 Oeste 39 Oeste 0 947.5 1.2 57
2019-12-14 01:00:00 12.8 19 Oeste 50 Oeste 0 947.4 1 57
2019-12-14 00:00:00 13 17 Oeste 43 Oeste 0 947 1.3 58
2019-12-13 23:00:00 13.3 24 Oeste 46 Oeste 0 946.3 0.9 59
2019-12-13 22:00:00 13.9 26 Oeste 70 Oeste 0 946.4 1.9 59
2019-12-13 21:00:00 14.1 29 Oeste 53 Oeste 0 945.7 1.8 59
2019-12-13 20:00:00 14.2 30 Oeste 58 Oeste 0 945.4 1.9 62
2019-12-13 19:00:00 14.5 26 Oeste 54 Oeste 0 944.5 1.7 60
2019-12-13 18:00:00 15.1 31 Oeste 62 Oeste 0 943.9 0.8 58
2019-12-13 17:00:00 15.2 32 Oeste 64 Oeste 0 943.5 0.2 58
2019-12-13 16:00:00 16.2 33 Oeste 58 Oeste 0 942.8 -0.9 55
2019-12-13 15:00:00 16 26 Oeste 57 Oeste 0 943.1 -0.6 56
2019-12-13 14:00:00 15 36 Oeste 64 Oeste 0 943.3 0 58
2019-12-13 13:00:00 14.7 34 Oeste 67 Oeste 0 943.7 1 58
2019-12-13 12:00:00 14.6 41 Oeste 62 Oeste 0 943.7 1.8 57
2019-12-13 11:00:00 14.1 29 Oeste 45 Oeste 0 943.3 2 58
2019-12-13 10:00:00 13.8 22 Oeste 54 Oeste 0 942.7 2.2 59
2019-12-13 09:00:00 13.8 24 Oeste 50 Oeste 0 941.9 2.1 61
2019-12-13 08:00:00 14 24 Oeste 42 Oeste 0 941.3 1 61
2019-12-13 07:00:00 14.1 23 Oeste 43 Oeste 0 940.5 0.2 64
2019-12-13 06:00:00 14.3 22 Oeste 44 Oeste 0 939.8 -0.4 63
2019-12-13 05:00:00 14.1 18 Oeste 35 Oeste 0 940.3 0 64
2019-12-13 04:00:00 13.4 17 Sudoeste 37 Sudoeste 0 940.3 -0.1 66
2019-12-13 03:00:00 13 14 Sudoeste 33 Oeste 0 940.2 -0.5 66
2019-12-13 02:00:00 12.7 13 Sudoeste 28 Sudoeste 0 940.3 -0.3 66
2019-12-13 01:00:00 11.7 9 Oeste 25 Sudoeste 0 940.4 -0.3 71
2019-12-13 00:00:00 11.2 16 Oeste 31 Oeste 0 940.7 -0.7 72
2019-12-12 23:00:00 10.8 22 Oeste 34 Oeste 0 940.6 -1.3 71
2019-12-12 22:00:00 9.8 14 Oeste 31 Oeste 0 940.7 -1.3 74
2019-12-12 21:00:00 9 15 Oeste 29 Oeste 0 941.4 -0.9 77
2019-12-12 20:00:00 8.9 14 Oeste 26 Oeste 0 941.9 -1 73
2019-12-12 19:00:00 8.6 17 Oeste 30 Oeste 0 942 -1.6 72
2019-12-12 18:00:00 7.7 15 Oeste 32 Oeste 0.2 942.3 -2.4 76
2019-12-12 17:00:00 7.9 17 Oeste 32 Oeste 0.2 942.9 -2.5 72
2019-12-12 16:00:00 7.8 8 Sudoeste 32 Oeste 0.2 943.6 -2.9 74
2019-12-12 15:00:00 8.4 19 Oeste 48 Sudoeste 0 944.7 -3.5 67
2019-12-12 14:00:00 9.4 21 Sudoeste 41 Sudoeste 0 945.4 -4.3 60
2019-12-12 13:00:00 9.7 21 Oeste 38 Oeste 0 946.5 -3.5 57
2019-12-12 12:00:00 8.7 14 Oeste 24 Sudoeste 0 948.2 -2.3 62
2019-12-12 11:00:00 8.3 14 Oeste 26 Oeste 0 949.7 -0.6 61
2019-12-12 10:00:00 7.3 7 Sudoeste 19 Sudoeste 0 950 -1 61
2019-12-12 09:00:00 6.9 12 Sudoeste 27 Oeste 0 950.5 -0.5 63
2019-12-12 08:00:00 7.1 18 Oeste 35 Oeste 0 950.3 -1 67
2019-12-12 07:00:00 6.5 4 Nordeste 22 Sudoeste 0 951 -1 67
2019-12-12 06:00:00 6.4 18 Oeste 39 Oeste 0 951 -1.6 67
2019-12-12 05:00:00 6.3 14 Oeste 47 Oeste 0 951.3 -2 67
2019-12-12 04:00:00 6.4 25 Oeste 50 Oeste 0 952 -1.7 68
2019-12-12 03:00:00 5.9 17 Oeste 38 Oeste 0 952.6 -1.4 70
2019-12-12 02:00:00 5.8 8 Sudoeste 24 Noroeste 0 953.3 -0.9 69
2019-12-12 01:00:00 4.6 5 Sur 20 Sudoeste 0 953.7 -0.3 70
2019-12-12 00:00:00 4.6 7 Sudoeste 17 Oeste 0 954 -0.1 68
2019-12-11 23:00:00 5 8 Sudoeste 14 Sudoeste 0 954.2 0 66
2019-12-11 22:00:00 5.6 10 Sudoeste 18 Sudoeste 0 954 0.4 67
2019-12-11 21:00:00 5.7 11 Sur 17 Sur 0 954.1 0.8 69
2019-12-11 20:00:00 6 9 Sudoeste 16 Oeste 0 954.2 1.6 67
2019-12-11 19:00:00 6.3 5 Oeste 16 Oeste 0 953.6 1.3 69
2019-12-11 18:00:00 7.3 11 Oeste 30 Oeste 0 953.3 1.2 67
2019-12-11 17:00:00 8.5 9 Oeste 32 Oeste 0 952.6 0.3 69
2019-12-11 16:00:00 8.3 19 Sudoeste 33 Sudoeste 0 952.3 -0.3 71
2019-12-11 15:00:00 7.5 7 Sudoeste 10 Sudoeste 0 952.1 -0.6 81
2019-12-11 14:00:00 5.8 3 Sudeste 9 Oeste 0 952.3 -0.8 86
2019-12-11 13:00:00 4.9 5 Nordeste 12 Sudoeste 0.4 952.6 0 82
2019-12-11 12:00:00 4.3 7 Sur 10 Sur 0.2 952.7 0.7 84
2019-12-11 11:00:00 4 4 Norte 14 Sur 0 953.1 0.7 77
2019-12-11 10:00:00 2.9 6 Sur 10 Sur 0 952.6 0.1 79
2019-12-11 09:00:00 2.4 6 Sur 12 Sur 0 952 -0.8 79
2019-12-11 08:00:00 2.3 7 Sur 20 Sur 0 952.4 -0.8 79
2019-12-11 07:00:00 1.6 15 Sur 21 Sur 0 952.5 -1.2 82
2019-12-11 06:00:00 2.3 14 Sur 21 Sur 0 952.8 -1.5 79
2019-12-11 05:00:00 2.4 13 Sur 19 Sur 0 953.2 -1.4 81
2019-12-11 04:00:00 3.7 12 Sur 18 Sur 0 953.7 -1.4 76
2019-12-11 03:00:00 4.6 8 Sur 15 Sur 0 954.3 -1.2 72
2019-12-11 02:00:00 6.1 9 Sur 13 Sudeste 0 954.6 -1.1 65
2019-12-11 01:00:00 6.6 6 Sur 11 Sur 0 955.1 -0.7 65
2019-12-11 00:00:00 7.1 3 Oeste 8 Sudoeste 0 955.5 -0.4 64
2019-12-10 23:00:00 7.5 4 Sudoeste 18 Sur 0 955.7 -0.3 61
2019-12-10 22:00:00 8.2 11 Sur 16 Sur 0 955.8 0 55
2019-12-10 21:00:00 8.4 10 Sur 14 Sur 0 955.9 0 53
2019-12-10 20:00:00 8.8 7 Sudoeste 15 Sur 0 956 0.1 52
2019-12-10 19:00:00 10 9 Sudoeste 16 Sudoeste 0 955.8 -0.6 47
2019-12-10 18:00:00 10.3 4 Sudoeste 8 Sur 0 955.9 -1.1 60
2019-12-10 17:00:00 12.1 5 Sur 8 Sur 0 955.9 -2.2 52
2019-12-10 16:00:00 13.3 3 Sudoeste 14 Sudoeste 0 956.4 -2.6 47
2019-12-10 15:00:00 13.6 5 Sudoeste 14 Oeste 0 957 -3.3 48
2019-12-10 14:00:00 11.5 10 Sudoeste 17 Sudoeste 0 958.1 -2.8 54
2019-12-10 13:00:00 9.2 5 Sudoeste 10 Sudoeste 0 959 -1.8 61
2019-12-10 12:00:00 7.1 4 Sur 13 Sur 0 960.3 -0.7 69
2019-12-10 11:00:00 3.2 3 Sudeste 11 Sur 0 960.9 0.3 88
2019-12-10 10:00:00 0 5 Sur 9 Sur 0 960.8 0 90
2019-12-10 09:00:00 -0.2 3 Sur 7 Sur 0 961 0.2 90
2019-12-10 08:00:00 -0.6 3 Este 4 Este 0 960.6 -0.9 89
2019-12-10 07:00:00 0.1 4 Norte 6 Este 0 960.8 -0.7 88
2019-12-10 06:00:00 0.4 2 Noroeste 8 Oeste 0 960.8 -0.7 87
2019-12-10 05:00:00 1 3 Este 6 Este 0 961.5 0.1 85
2019-12-10 04:00:00 1.7 3 Nordeste 8 Sudeste 0 961.5 0 84
2019-12-10 03:00:00 3.4 6 Sur 12 Sudoeste 0 961.5 -0.3 79
2019-12-10 02:00:00 4.2 6 Sur 15 Sudoeste 0 961.4 0.2 78
2019-12-10 01:00:00 4.1 7 Sudoeste 12 Sur 0 961.5 0.4 79
2019-12-10 00:00:00 5.1 5 Sur 11 Sur 0 961.8 1 75
2019-12-09 23:00:00 6.1 4 Sudoeste 13 Noroeste 0 961.2 0.6 69
2019-12-09 22:00:00 7.3 7 Noroeste 11 Oeste 0 961.1 1.6 63
2019-12-09 21:00:00 8.3 9 Sur 26 Noroeste 0 960.8 1.6 57
2019-12-09 20:00:00 9.9 8 Oeste 22 Oeste 0 960.6 2.1 51
2019-12-09 19:00:00 10.2 13 Oeste 32 Nordeste 0 959.5 1.1 51
2019-12-09 18:00:00 11 17 Norte 42 Noroeste 0 959.2 1.3 48
2019-12-09 17:00:00 12.8 12 Noroeste 25 Noroeste 0 958.5 0.4 48
2019-12-09 16:00:00 12.5 15 Oeste 29 Oeste 0 958.4 -0.6 45
2019-12-09 15:00:00 13 17 Oeste 29 Oeste 0 957.9 -1.8 43
2019-12-09 14:00:00 12.4 21 Oeste 30 Oeste 0 958.1 -1.8 48
2019-12-09 13:00:00 11.3 18 Oeste 27 Oeste 0 959 -0.6 50
2019-12-09 12:00:00 10.3 13 Oeste 23 Oeste 0 959.7 1.1 57
2019-12-09 11:00:00 8.1 5 Noroeste 9 Noroeste 0 959.9 1.6 67
2019-12-09 10:00:00 6.8 5 Norte 14 Norte 0 959.6 2 75
2019-12-09 09:00:00 6 6 Nordeste 18 Norte 0 958.6 1 77
2019-12-09 08:00:00 6 8 Oeste 21 Noroeste 0 958.3 0.9 77
2019-12-09 07:00:00 5.8 7 Sur 12 Sur 0 957.6 0.1 83
2019-12-09 06:00:00 6.1 5 Sudoeste 17 Oeste 0 957.6 0.4 82
2019-12-09 05:00:00 6 7 Sudoeste 11 Oeste 0 957.4 0.4 86
2019-12-09 04:00:00 7.5 4 Sudoeste 14 Oeste 0 957.5 0.6 82
2019-12-09 03:00:00 7.9 4 Oeste 19 Oeste 0 957.2 0.6 83
2019-12-09 02:00:00 7.4 4 Sudoeste 8 Oeste 0 957 0.7 90
2019-12-09 01:00:00 7.1 3 Oeste 10 Noroeste 0 956.9 0.6 90
2019-12-09 00:00:00 7 5 Nordeste 13 Sudoeste 0 956.6 0.7 88
2019-12-08 23:00:00 8.3 7 Sudoeste 12 Sudoeste 0 956.3 0.4 88
2019-12-08 22:00:00 8.8 7 Sudoeste 10 Sudoeste 0 956.3 0.9 88
2019-12-08 21:00:00 9 7 Sur 13 Sur 0 955.9 1 89
2019-12-08 20:00:00 9.1 8 Sur 12 Sur 0.6 955.9 1.4 89
2019-12-08 19:00:00 9.1 9 Sur 14 Sudoeste 1.8 955.4 1.2 89
2019-12-08 18:00:00 9.4 9 Sudoeste 19 Sudoeste 0.8 954.9 0.9 86
2019-12-08 17:00:00 10.2 11 Oeste 27 Oeste 0.6 954.5 0.3 80
2019-12-08 16:00:00 12 14 Oeste 26 Sudoeste 0 954.2 -0.9 67
2019-12-08 15:00:00 12.5 11 Sudoeste 24 Sudoeste 0 954 -2.1 61
2019-12-08 14:00:00 12.4 4 Norte 10 Sur 0 954.2 -2.8 61
2019-12-08 13:00:00 10.3 4 Oeste 10 Sudoeste 0 955.1 -1.7 68
2019-12-08 12:00:00 6.9 3 Sudoeste 7 Este 0 956.1 -0.7 91
2019-12-08 11:00:00 1.7 3 Nordeste 8 Sur 0 957 0.4 93
2019-12-08 10:00:00 -0.6 2 Sur 5 Sur 0 956.8 0.7 93
2019-12-08 09:00:00 -1.6 0 Calma 4 Oeste 0 956.8 0.7 93
2019-12-08 08:00:00 -1.3 0 Calma 4 Sur 0 956.6 0.6 93
2019-12-08 07:00:00 -1 2 Sur 4 Sur 0 956.1 -0.3 93
2019-12-08 06:00:00 -0.4 0 Calma 3 Oeste 0 956.1 -0.7 93
2019-12-08 05:00:00 0.2 2 Oeste 5 Nordeste 0 956 -0.9 92
2019-12-08 04:00:00 0.8 4 Norte 6 Norte 0 956.4 -0.2 92
2019-12-08 03:00:00 0.8 0 Calma 4 Sudoeste 0 956.8 -0.2 91
2019-12-08 02:00:00 1.3 2 Sudoeste 5 Oeste 0 956.9 0.2 91
2019-12-08 01:00:00 2.2 2 Sudoeste 4 Nordeste 0 956.6 0.3 90
2019-12-08 00:00:00 2.7 0 Calma 3 Norte 0 957 1 89
2019-12-07 23:00:00 3.1 3 Este 11 Nordeste 0 956.7 1.2 89
2019-12-07 22:00:00 3.5 6 Nordeste 12 Sur 0 956.3 1.3 87
2019-12-07 21:00:00 4.9 5 Sur 7 Sur 0 956 1.4 86
2019-12-07 20:00:00 5.7 3 Este 5 Sudeste 0 955.5 1.1 83
2019-12-07 19:00:00 7.2 3 Noroeste 5 Oeste 0 955 0.5 79
2019-12-07 18:00:00 9.1 0 Calma 3 Norte 0 954.6 -0.1 72
2019-12-07 17:00:00 10.7 3 Norte 8 Nordeste 0 954.4 -0.9 66
2019-12-07 16:00:00 10.1 6 Nordeste 9 Nordeste 0 954.5 -1.8 69
2019-12-07 15:00:00 8.8 4 Norte 9 Norte 0 954.7 -2.4 71
2019-12-07 14:00:00 6.6 4 Norte 7 Nordeste 0 955.3 -2.2 88
2019-12-07 13:00:00 3.7 2 Este 6 Este 0 956.3 -0.7 92
2019-12-07 12:00:00 2.7 4 Nordeste 6 Nordeste 0 957.1 0.6 93
2019-12-07 11:00:00 2 0 Calma 8 Sur 0 957.5 1.3 93
2019-12-07 10:00:00 1.4 2 Sur 7 Sudoeste 0 957 1.3 93
2019-12-07 09:00:00 1.4 3 Sudoeste 5 Oeste 0 956.5 1 93
2019-12-07 08:00:00 1.3 0 Calma 6 Sur 0 956.2 0.7 93
2019-12-07 07:00:00 1.3 3 Sudoeste 9 Sur 0 955.7 0 93
2019-12-07 06:00:00 1.5 2 Sudoeste 6 Noroeste 0 955.5 -0.4 92
2019-12-07 05:00:00 1.8 0 Calma 5 Sudeste 0 955.5 -0.1 91
2019-12-07 04:00:00 1.8 0 Calma 6 Este 0 955.7 0.2 91
2019-12-07 03:00:00 1.9 2 Oeste 6 Sur 0 955.9 0.3 90
2019-12-07 02:00:00 2.3 4 Sur 6 Sur 0 955.6 0.4 89
2019-12-07 01:00:00 3.4 0 Calma 6 Nordeste 0 955.5 0.7 89
2019-12-07 00:00:00 3.8 4 Nordeste 5 Sur 0 955.6 1.1 88
2019-12-06 23:00:00 4.8 2 Sudeste 8 Sur 0 955.2 1.1 86
2019-12-06 22:00:00 5.3 5 Sur 8 Sur 0 954.8 1.1 85
2019-12-06 21:00:00 6.5 3 Nordeste 13 Sur 0 954.5 1.2 81
2019-12-06 20:00:00 7.3 7 Sudeste 12 Sudeste 0 954.1 0.9 80
2019-12-06 19:00:00 8.8 0 Calma 7 Sur 0 953.7 0.4 75
2019-12-06 18:00:00 11.2 4 Este 6 Sudeste 0 953.3 -0.1 66
2019-12-06 17:00:00 13.4 3 Este 10 Este 0 953.2 -0.8 58
2019-12-06 16:00:00 13.5 4 Nordeste 9 Sudoeste 0 953.3 -1.6 57
2019-12-06 15:00:00 13.5 4 Noroeste 10 Norte 0 953.4 -2.3 58
2019-12-06 14:00:00 12.4 3 Norte 9 Este 0 954 -2.3 61
2019-12-06 13:00:00 11.5 3 Nordeste 9 Norte 0 954.9 -1.1 63
2019-12-06 12:00:00 10.2 3 Noroeste 9 Oeste 0 955.7 0.1 66
2019-12-06 11:00:00 7.9 4 Oeste 7 Noroeste 0 956.3 1 81
2019-12-06 10:00:00 6.3 3 Oeste 5 Nordeste 0 956 1.1 86
2019-12-06 09:00:00 5.6 5 Nordeste 6 Nordeste 0 955.6 1.1 87
2019-12-06 08:00:00 5.3 3 Sur 6 Sudoeste 0 955.3 0.8 87
2019-12-06 07:00:00 5.1 2 Sudoeste 5 Noroeste 0 954.9 0.3 88
2019-12-06 06:00:00 5 3 Sudoeste 6 Sudoeste 0 954.5 0 88
2019-12-06 05:00:00 4.9 5 Sur 6 Sur 0 954.5 0.2 88
2019-12-06 04:00:00 5 2 Sur 5 Nordeste 0 954.6 0.2 87
2019-12-06 03:00:00 5.3 3 Oeste 7 Sur 0 954.5 -0.1 86
2019-12-06 02:00:00 5.7 2 Oeste 13 Sudoeste 0 954.3 -0.2 85
2019-12-06 01:00:00 6.9 0 Calma 7 Sudoeste 0 954.4 0.4 82
2019-12-06 00:00:00 7.7 3 Norte 7 Sudoeste 0 954.6 0.9 81
2019-12-05 23:00:00 8.1 4 Sudeste 8 Sudeste 0 954.5 1.2 78
2019-12-05 22:00:00 8.2 6 Sudoeste 11 Sur 0 954 1.2 80
2019-12-05 21:00:00 8.7 4 Sudoeste 8 Sudoeste 0 953.7 1.4 77
2019-12-05 20:00:00 9 2 Sudeste 6 Sudeste 0 953.3 1.3 76
2019-12-05 19:00:00 9.2 2 Sur 12 Este 0 952.8 1.4 74
2019-12-05 18:00:00 9.4 10 Este 17 Nordeste 0 952.3 1.3 74
2019-12-05 17:00:00 9.9 10 Nordeste 15 Nordeste 0 952 0.6 72
2019-12-05 16:00:00 10.2 5 Sudoeste 14 Este 0 951.4 -0.1 72
2019-12-05 15:00:00 10.1 7 Este 17 Este 0 951 -0.8 72
2019-12-05 14:00:00 9.2 6 Este 15 Este 0 951.4 -0.1 75
2019-12-05 13:00:00 8.7 3 Sudeste 9 Sudeste 0 951.5 0.9 77
2019-12-05 12:00:00 8.2 3 Sudeste 9 Nordeste 0 951.8 1.9 78
2019-12-05 11:00:00 7.8 6 Este 12 Nordeste 0 951.5 2.3 80
2019-12-05 10:00:00 7.4 5 Sur 17 Nordeste 0 950.6 2.1 83
2019-12-05 09:00:00 6.9 11 Nordeste 17 Nordeste 0 949.9 2.1 84
2019-12-05 08:00:00 6.5 11 Nordeste 24 Este 0 949.2 1.8 84
2019-12-05 07:00:00 6.4 18 Nordeste 25 Nordeste 0 948.5 1.5 82
2019-12-05 06:00:00 6.6 18 Nordeste 25 Nordeste 0 947.8 1.4 81
2019-12-05 05:00:00 7.1 10 Este 15 Nordeste 0 947.4 1.3 83
2019-12-05 04:00:00 7.1 3 Este 12 Sudeste 0 947 1.3 83
2019-12-05 03:00:00 6.9 4 Sudoeste 10 Sur 0 946.4 1.4 82
2019-12-05 02:00:00 6.9 7 Sur 17 Norte 0 946.1 1.9 79
2019-12-05 01:00:00 7.2 13 Nordeste 30 Nordeste 0 945.7 2.3 77
2019-12-05 00:00:00 7.6 18 Nordeste 33 Este 0 945 1.7 73
2019-12-04 23:00:00 7.4 20 Este 36 Este 0 944.2 1.2 74
2019-12-04 22:00:00 7.7 22 Nordeste 39 Nordeste 0 943.4 0.9 73
2019-12-04 21:00:00 8.5 21 Nordeste 35 Nordeste 0 943.3 1.1 75
2019-12-04 20:00:00 7.9 14 Nordeste 24 Este 0 943 0.6 85
2019-12-04 19:00:00 7.5 4 Este 14 Sur 0 942.5 0.3 87
2019-12-04 18:00:00 7.5 3 Sur 12 Este 0.4 942.2 0.8 86
2019-12-04 17:00:00 7.7 7 Este 20 Nordeste 0.4 942.4 0.7 85
2019-12-04 16:00:00 8 16 Nordeste 35 Nordeste 0 942.2 -0.2 78
2019-12-04 15:00:00 8.7 24 Nordeste 35 Nordeste 0 941.4 -1.6 72
2019-12-04 14:00:00 7.3 4 Noroeste 10 Noroeste 0 941.7 -1.8 78
2019-12-04 13:00:00 6.3 3 Oeste 8 Oeste 0 942.4 -1 83
2019-12-04 12:00:00 5.8 3 Sudoeste 5 Sudoeste 0 943 -0.4 82
2019-12-04 11:00:00 5.2 2 Sur 6 Oeste 0 943.5 -0.2 83
2019-12-04 10:00:00 4.7 3 Noroeste 5 Oeste 0 943.4 -0.6 87
2019-12-04 09:00:00 4 0 Calma 4 Oeste 0 943.4 -0.9 88
2019-12-04 08:00:00 3.8 0 Calma 4 Sudeste 0 943.7 -1.1 88
2019-12-04 07:00:00 3.7 3 Sudoeste 4 Oeste 0 944 -1.5 88
2019-12-04 06:00:00 3.6 3 Sudoeste 4 Sur 0 944.3 -2.3 88
2019-12-04 05:00:00 3.5 0 Calma 4 Oeste 0 944.8 -2.2 88
2019-12-04 04:00:00 3.4 2 Sudeste 8 Sur 0 945.5 -2.4 88
2019-12-04 03:00:00 3.4 5 Sudoeste 9 Sur 0 946.6 -2.1 88
2019-12-04 02:00:00 3.2 2 Sudoeste 6 Sudeste 0 947 -1.8 87
2019-12-04 01:00:00 2.9 4 Sur 6 Sur 0.4 947.9 -0.9 86
2019-12-04 00:00:00 3.2 4 Sur 5 Sudeste 0 948.7 -0.1 83
2019-12-03 23:00:00 2.9 5 Sur 7 Sur 0 948.8 0.3 82
2019-12-03 22:00:00 2.4 3 Sur 6 Sudoeste 0 948.8 0.5 82
2019-12-03 21:00:00 2.5 4 Sudeste 8 Norte 0 948.8 0.8 79
2019-12-03 20:00:00 3.8 3 Noroeste 15 Nordeste 0 948.5 0.4 74
2019-12-03 19:00:00 4.5 5 Este 18 Nordeste 0 948.3 0.2 72
2019-12-03 18:00:00 5.1 12 Nordeste 22 Nordeste 0 948 -0.2 70
2019-12-03 17:00:00 5.8 14 Nordeste 22 Nordeste 0 948.1 -0.7 66
2019-12-03 16:00:00 6.5 18 Nordeste 25 Nordeste 0 948.1 -1.5 62
2019-12-03 15:00:00 6.5 14 Nordeste 22 Nordeste 0 948.2 -2 61
2019-12-03 14:00:00 6.4 5 Este 10 Este 0 948.8 -1.7 59
2019-12-03 13:00:00 5.5 3 Sudoeste 8 Nordeste 0 949.6 -1 63
2019-12-03 12:00:00 5.2 3 Sur 9 Sur 0 950.2 -0.2 65
2019-12-03 11:00:00 4.4 3 Oeste 7 Sudoeste 0 950.5 0.1 75
2019-12-03 10:00:00 3.5 0 Calma 7 Nordeste 0 950.6 0.3 77
2019-12-03 09:00:00 2.6 4 Nordeste 7 Nordeste 0 950.4 0.2 83
2019-12-03 08:00:00 2.2 3 Nordeste 7 Norte 0 950.4 0.1 84
2019-12-03 07:00:00 2.1 3 Norte 7 Norte 0 950.3 -0.4 85
2019-12-03 06:00:00 1.6 4 Sur 16 Sur 0 950.2 -0.8 83
2019-12-03 05:00:00 1.3 9 Sur 14 Sur 0 950.3 -0.7 85
2019-12-03 04:00:00 1.1 7 Sur 11 Sur 0 950.7 -0.7 87
2019-12-03 03:00:00 1.4 3 Sur 5 Oeste 0 951 -0.5 86
2019-12-03 02:00:00 2 3 Sudoeste 8 Sur 0 951 -0.4 85
2019-12-03 01:00:00 1.9 3 Sur 6 Sudeste 0 951.4 0.2 85
2019-12-03 00:00:00 2.3 0 Calma 7 Oeste 0 951.5 0.6 84
2019-12-02 23:00:00 3.7 8 Nordeste 15 Nordeste 0 951.4 0.9 78
2019-12-02 22:00:00 3.8 4 Este 5 Este 0 951.2 1.2 77
2019-12-02 21:00:00 5 3 Oeste 19 Nordeste 0 950.9 1.2 74
2019-12-02 20:00:00 6.5 11 Nordeste 18 Nordeste 0 950.5 1.4 72
2019-12-02 19:00:00 7.1 12 Nordeste 19 Nordeste 0 950 1.3 67
2019-12-02 18:00:00 8.1 15 Nordeste 26 Este 0 949.7 1.1 60
2019-12-02 17:00:00 9.4 15 Nordeste 27 Nordeste 0 949.1 0.2 56
2019-12-02 16:00:00 10.5 15 Nordeste 25 Nordeste 0 948.7 -0.7 52
2019-12-02 15:00:00 10.8 14 Nordeste 24 Nordeste 0 948.6 -1.3 51
2019-12-02 14:00:00 10.9 6 Noroeste 13 Nordeste 0 948.9 -1 56
2019-12-02 13:00:00 10.6 3 Este 10 Sudoeste 0 949.4 0 59
2019-12-02 12:00:00 8.9 5 Sudoeste 10 Sudoeste 0 949.9 1 70
2019-12-02 11:00:00 4.8 2 Oeste 5 Sur 0 949.9 1.4 89
2019-12-02 10:00:00 2.7 3 Sudoeste 6 Sur 0 949.4 1.7 91
2019-12-02 09:00:00 2.2 3 Sudeste 11 Sur 0 948.9 1.8 91
2019-12-02 08:00:00 2 5 Sur 9 Sur 0 948.5 1.5 91
2019-12-02 07:00:00 2.4 2 Este 6 Sudeste 0 947.7 0.9 90
2019-12-02 06:00:00 2.1 5 Sudoeste 7 Oeste 0 947.1 0.6 90
2019-12-02 05:00:00 2.9 2 Sur 5 Oeste 0 947 0.8 89
2019-12-02 04:00:00 3.1 4 Oeste 5 Oeste 0 946.8 0.6 88
2019-12-02 03:00:00 3.8 3 Sur 5 Sudeste 0 946.5 0.5 87
2019-12-02 02:00:00 3.9 0 Calma 6 Sudeste 0 946.2 0.3 86
2019-12-02 01:00:00 4.2 7 Sudoeste 11 Sur 0 946.2 0.6 86
2019-12-02 00:00:00 4.1 5 Sudoeste 9 Sur 0 946 0.9 85
2019-12-01 23:00:00 4.7 4 Este 13 Sur 0 945.9 1.1 83
2019-12-01 22:00:00 5.4 10 Sur 15 Sur 0 945.6 1.5 80
2019-12-01 21:00:00 5.7 4 Sur 13 Sudeste 0 945.1 1.6 79
2019-12-01 20:00:00 6.6 6 Sur 8 Sur 0 944.8 1.4 75
2019-12-01 19:00:00 7.7 3 Este 12 Este 0 944.1 0.6 73
2019-12-01 18:00:00 9.2 7 Nordeste 14 Nordeste 0 943.5 0 68
2019-12-01 17:00:00 11.4 0 Calma 8 Nordeste 0 943.4 -0.5 58
2019-12-01 16:00:00 12.4 3 Este 12 Este 0 943.5 -0.9 51
2019-12-01 15:00:00 12.4 5 Nordeste 11 Este 0 943.5 -1.4 53
2019-12-01 14:00:00 12 2 Este 12 Sudoeste 0 943.9 -1.5 58
2019-12-01 13:00:00 10.2 3 Noroeste 10 Norte 0 944.4 -0.7 63
2019-12-01 12:00:00 8.7 5 Norte 10 Nordeste 0 944.9 -0.1 70
2019-12-01 11:00:00 6.4 4 Sur 7 Sur 0 945.4 0.4 91
2019-12-01 10:00:00 3.7 2 Sudoeste 5 Sudoeste 0 945.1 0.7 92
2019-12-01 09:00:00 2.4 3 Noroeste 9 Nordeste 0 945 0.5 92
2019-12-01 08:00:00 1.9 3 Sudeste 8 Sudeste 0 945 0.2 91
2019-12-01 07:00:00 2.1 3 Sudeste 7 Sur 0 944.4 -0.7 90
2019-12-01 06:00:00 3.2 3 Sur 5 Sur 0 944.5 -1.2 90
2019-12-01 05:00:00 3.8 4 Sudoeste 5 Nordeste 0 944.8 -1.3 89
2019-12-01 04:00:00 4.4 3 Oeste 9 Nordeste 0 945.1 -1.4 88
2019-12-01 03:00:00 5.4 3 Sudeste 10 Nordeste 0 945.7 -1.6 87
2019-12-01 02:00:00 6.2 2 Sudoeste 17 Sur 0 946.1 -1.6 85
2019-12-01 01:00:00 6.6 10 Sur 18 Sur 0.4 946.5 -0.8 84
2019-12-01 00:00:00 7 8 Sudoeste 26 Sudoeste 1 947.3 0.3 81
2019-11-30 23:00:00 8.8 10 Sudoeste 22 Oeste 0.2 947.7 1.2 74
2019-11-30 22:00:00 8.9 10 Sur 37 Oeste 0.2 947.3 1.9 81
2019-11-30 21:00:00 10.8 12 Oeste 23 Sudoeste 0.2 947 1.5 84
2019-11-30 20:00:00 11.3 11 Sudoeste 39 Noroeste 1.2 946.5 0.9 84
2019-11-30 19:00:00 14.6 11 Sur 22 Sur 0 945.4 -1 60
2019-11-30 18:00:00 14.9 10 Sur 37 Sudoeste 0 945.5 -1.8 59
2019-11-30 17:00:00 15.4 16 Sudoeste 40 Sur 0 945.6 -2.3 58
2019-11-30 16:00:00 16 15 Sudoeste 40 Sudoeste 0 946.4 -2.4 56
2019-11-30 15:00:00 16.1 23 Sudoeste 46 Sudoeste 0 947.3 -2.5 56
2019-11-30 14:00:00 17.5 25 Sudoeste 44 Sudoeste 0 947.9 -2.8 52
2019-11-30 13:00:00 17.3 20 Sudoeste 36 Sudoeste 0 948.8 -1.9 55
2019-11-30 12:00:00 15.8 17 Sudoeste 31 Sudoeste 0 949.8 -0.8 62
2019-11-30 11:00:00 11.2 4 Nordeste 9 Sudoeste 0 950.7 0.1 88
2019-11-30 10:00:00 8.1 0 Calma 6 Nordeste 0 950.7 -0.1 91
2019-11-30 09:00:00 6.8 3 Oeste 13 Sudoeste 0 950.6 -0.3 91
2019-11-30 08:00:00 7.3 9 Sur 14 Sur 0 950.6 -0.8 92
2019-11-30 07:00:00 6.7 7 Sudoeste 10 Sur 0 950.8 -0.7 91
2019-11-30 06:00:00 7.4 3 Nordeste 8 Sur 0 950.9 -0.9 90
2019-11-30 05:00:00 7.9 4 Sudoeste 6 Sudoeste 0 951.4 -0.8 90
2019-11-30 04:00:00 8.1 3 Sudoeste 11 Norte 0 951.5 -1.2 89
2019-11-30 03:00:00 8.6 5 Este 13 Sur 0 951.8 -0.9 89
2019-11-30 02:00:00 8.6 3 Nordeste 10 Sudeste 0 952.2 -0.2 89
2019-11-30 01:00:00 8.5 7 Sur 10 Sur 0 952.7 0.2 88
2019-11-30 00:00:00 9.6 5 Sur 8 Sur 0 952.7 0.3 88
2019-11-29 23:00:00 10 5 Nordeste 10 Sur 0 952.4 0.4 86
2019-11-29 22:00:00 10.8 4 Oeste 9 Sur 0 952.5 0.7 83
2019-11-29 21:00:00 12.3 3 Sur 7 Nordeste 0 952.4 0.9 80
2019-11-29 20:00:00 13.1 6 Sur 9 Sur 0 952 0.8 77
2019-11-29 19:00:00 13.6 6 Sur 9 Sur 0 951.8 0.9 73
2019-11-29 18:00:00 14.8 6 Oeste 15 Oeste 0 951.5 0.5 68
2019-11-29 17:00:00 15.5 7 Noroeste 16 Noroeste 0 951.2 0 65
2019-11-29 16:00:00 16.5 9 Oeste 22 Oeste 0 950.9 -0.4 60
2019-11-29 15:00:00 15.8 14 Oeste 24 Oeste 0 951 -0.8 66
2019-11-29 14:00:00 15.4 15 Oeste 28 Sudoeste 0 951.2 -0.8 66
2019-11-29 13:00:00 15.6 14 Oeste 25 Oeste 0 951.3 -0.1 65
2019-11-29 12:00:00 15.4 15 Oeste 23 Oeste 0 951.8 1.1 66
2019-11-29 11:00:00 13.7 3 Sur 8 Sudoeste 0 952 1.9 84
2019-11-29 10:00:00 11.8 4 Sur 10 Oeste 0 951.4 1.9 89
2019-11-29 09:00:00 11.6 6 Oeste 10 Oeste 0 950.7 1.6 87
2019-11-29 08:00:00 11.8 7 Oeste 11 Sudoeste 0 950.1 1.5 83
2019-11-29 07:00:00 12.4 10 Sudoeste 16 Oeste 0 949.5 1.3 77
2019-11-29 06:00:00 12.4 4 Oeste 8 Oeste 0 949.1 1.1 75
2019-11-29 05:00:00 12.4 4 Sur 16 Sudoeste 0 948.6 1 74
2019-11-29 04:00:00 12.9 5 Sudoeste 14 Sur 0 948.2 1.1 71
2019-11-29 03:00:00 12.7 9 Sur 19 Sudeste 0 948 0.8 71
2019-11-29 02:00:00 12.6 8 Sudoeste 17 Sudoeste 0 947.6 0.7 69
2019-11-29 01:00:00 12.4 12 Sudoeste 21 Sudoeste 0 947.1 0.2 69
2019-11-29 00:00:00 12.6 6 Sur 12 Sudeste 0 947.2 0.6 67
2019-11-28 23:00:00 12.3 4 Sudeste 9 Sudeste 0 946.9 0.5 67
2019-11-28 22:00:00 12.2 3 Sur 14 Sudoeste 0 946.9 0.8 67
2019-11-28 21:00:00 11.7 5 Sur 21 Sudoeste 0 946.6 0.3 66
2019-11-28 20:00:00 11.6 14 Sudoeste 27 Sudoeste 0 946.4 0.1 66
2019-11-28 19:00:00 11.9 14 Sudoeste 31 Sudoeste 0 946.1 0 64
2019-11-28 18:00:00 12.2 14 Sudoeste 34 Sudoeste 0 946.3 0.1 63
2019-11-28 17:00:00 13 17 Sudoeste 35 Sudoeste 0 946.3 -0.2 61
2019-11-28 16:00:00 13.7 21 Sudoeste 42 Sudoeste 0 946.1 -0.5 58
2019-11-28 15:00:00 14.3 24 Sudoeste 41 Sudoeste 0 946.2 -1.2 54
2019-11-28 14:00:00 15.7 21 Sudoeste 45 Sudoeste 0 946.5 -1 49
2019-11-28 13:00:00 15 22 Sudoeste 37 Sudoeste 0 946.6 -0.3 53
2019-11-28 12:00:00 14.1 9 Sudoeste 21 Sudoeste 0 947.4 1 59
2019-11-28 11:00:00 12.7 3 Sur 16 Sur 0 947.5 1.2 62
2019-11-28 10:00:00 11 7 Sur 16 Sudoeste 0 946.9 1.3 68
2019-11-28 09:00:00 10.3 10 Sudoeste 21 Sudoeste 0 946.4 1.4 69
2019-11-28 08:00:00 10.1 15 Sudoeste 24 Sudoeste 0 946.3 1.5 69
2019-11-28 07:00:00 10.9 14 Oeste 23 Sudoeste 0 945.6 1 65
2019-11-28 06:00:00 10.7 9 Oeste 27 Sudoeste 0 945 0.7 66
2019-11-28 05:00:00 10.7 12 Sudoeste 19 Oeste 0 944.8 0.7 67
2019-11-28 04:00:00 10.7 13 Oeste 32 Sudoeste 0 944.6 0.1 69
2019-11-28 03:00:00 10.2 18 Oeste 31 Sudoeste 0 944.3 -0.3 70
2019-11-28 02:00:00 10.5 12 Oeste 26 Oeste 0 944.1 0 69
2019-11-28 01:00:00 11.4 11 Sudoeste 20 Sudoeste 0 944.5 0.5 65
2019-11-28 00:00:00 11.2 8 Oeste 25 Sudoeste 0 944.6 1 66
2019-11-27 23:00:00 10.9 12 Sudoeste 19 Oeste 0 944.1 0.5 67
2019-11-27 22:00:00 11.3 7 Sudoeste 27 Sudoeste 0 944 0.7 64
2019-11-27 21:00:00 11.7 12 Sudoeste 28 Sudoeste 0 943.6 0.7 62
2019-11-27 20:00:00 12.4 14 Sudoeste 22 Sudoeste 0 943.6 1.5 58
2019-11-27 19:00:00 12.5 9 Sudoeste 15 Sur 0 943.3 1.4 55
2019-11-27 18:00:00 13.5 11 Sudoeste 31 Oeste 0 942.9 0.8 50
2019-11-27 17:00:00 14.5 19 Sudoeste 34 Oeste 0 942.1 -0.5 44
2019-11-27 16:00:00 15.3 15 Sudoeste 39 Sudoeste 0 941.9 -1.2 42
2019-11-27 15:00:00 15.5 23 Oeste 41 Sudoeste 0 942.1 -1.4 42
2019-11-27 14:00:00 14.9 25 Oeste 46 Oeste 0 942.6 -1.1 41
2019-11-27 06:00:00 11.3 15 Oeste 35 Oeste 0 940.2 1.4 58
2019-11-27 05:00:00 12.6 26 Oeste 46 Oeste 0 940 1 59
2019-11-27 04:00:00 12.7 15 Sudoeste 30 Sudoeste 0 939.3 0.4 72
2019-11-27 03:00:00 12.9 19 Oeste 42 Oeste 0 938.8 0.3 70
2019-11-27 02:00:00 14 24 Sudoeste 51 Sudoeste 0 939 0.3 63
2019-11-27 01:00:00 14.7 26 Sudoeste 55 Oeste 0 938.9 -0.1 58
2019-11-27 00:00:00 15.3 22 Oeste 46 Sudoeste 0 938.5 -1 60
2019-11-26 23:00:00 14.9 18 Sudoeste 31 Sudoeste 0 938.7 -1 67
2019-11-26 22:00:00 14.9 12 Sudoeste 31 Sudoeste 0 939 -1.1 68
2019-11-26 21:00:00 15 11 Sur 27 Sudoeste 0 939.5 -1.1 67
2019-11-26 20:00:00 14.8 14 Sur 23 Sudoeste 0 939.7 -1.2 66
2019-11-26 19:00:00 15.3 12 Sudoeste 37 Sudoeste 0 940.1 -1.1 61
2019-11-26 18:00:00 15.3 15 Sudoeste 35 Sudoeste 0 940.6 -1.5 61
2019-11-26 17:00:00 16.1 24 Sudoeste 45 Sudoeste 0 940.9 -1.5 57
2019-11-26 16:00:00 17.2 14 Sudoeste 31 Sudoeste 0 941.2 -2.1 55
2019-11-26 15:00:00 16.7 10 Sudoeste 39 Sudoeste 0 942.1 -2.4 57
2019-11-26 14:00:00 17.9 13 Oeste 26 Sudoeste 0 942.4 -2.9 53
2019-11-26 13:00:00 16.9 10 Oeste 23 Oeste 0 943.3 -2.1 56
2019-11-26 12:00:00 14.8 8 Sudoeste 19 Oeste 0 944.5 -1.1 59
2019-11-26 11:00:00 12.9 4 Sudoeste 7 Oeste 0 945.3 0.2 68
2019-11-26 10:00:00 9.9 4 Sur 12 Sur 0 945.4 -0.1 79
2019-11-26 09:00:00 7.9 8 Sur 14 Sudeste 0 945.6 -0.3 81
2019-11-26 08:00:00 9.1 9 Sur 14 Sur 0 945.1 -1.2 80
2019-11-26 07:00:00 9 7 Sur 14 Sur 0 945.5 -0.5 81
2019-11-26 06:00:00 9.4 10 Sur 17 Sur 0 945.9 -0.3 79
2019-11-26 05:00:00 9.4 12 Sudoeste 20 Oeste 0 946.3 -0.3 81
2019-11-26 04:00:00 9.2 10 Oeste 15 Oeste 0 946 -1 79
2019-11-26 03:00:00 10.1 8 Sur 15 Sudoeste 0 946.2 -0.7 76
2019-11-26 02:00:00 10 9 Sur 14 Sudoeste 0 946.6 -0.4 76
2019-11-26 01:00:00 10.8 9 Sudoeste 15 Sur 0 947 -0.3 73
2019-11-26 00:00:00 11.3 8 Sur 15 Sur 0 946.9 0 71
2019-11-25 23:00:00 11.8 8 Sur 12 Sur 0 947 0.4 68
2019-11-25 22:00:00 11.8 6 Sudoeste 14 Sur 0 947.3 1.2 67
2019-11-25 21:00:00 12.1 5 Sur 12 Sur 0 946.9 1.3 67
2019-11-25 20:00:00 12.3 5 Sur 12 Sudeste 0 946.6 1.4 70
2019-11-25 19:00:00 12.7 5 Sur 10 Sudeste 0 946.1 0.8 71
2019-11-25 18:00:00 13.5 8 Oeste 17 Sudoeste 0 945.6 0.5 68
2019-11-25 17:00:00 14.3 13 Sudoeste 21 Sudoeste 0 945.2 -0.1 65
2019-11-25 16:00:00 14.6 12 Oeste 22 Sudoeste 0 945.3 0.1 66
2019-11-25 15:00:00 15.2 9 Oeste 23 Oeste 0 945.1 -0.4 64
2019-11-25 14:00:00 14.3 17 Oeste 36 Oeste 0 945.3 -0.5 66
2019-11-25 13:00:00 14.4 21 Oeste 33 Sudoeste 0 945.2 -0.3 62
2019-11-25 12:00:00 14.3 23 Oeste 37 Oeste 0 945.5 0.2 62
2019-11-25 11:00:00 12.8 18 Oeste 27 Oeste 0 945.8 1 71
2019-11-25 10:00:00 10.8 14 Oeste 18 Oeste 0 945.5 0.9 79
2019-11-25 09:00:00 9.3 10 Sudoeste 14 Sudoeste 0 945.3 1.1 85
2019-11-25 08:00:00 8.2 6 Sur 12 Sur 0 944.8 0.5 87
2019-11-25 07:00:00 7 3 Sudeste 17 Sur 0 944.6 0.4 88
2019-11-25 06:00:00 6.8 9 Sur 15 Sur 0.2 944.2 -0.3 88
2019-11-25 05:00:00 6.9 4 Sur 8 Sudeste 0 944.3 -0.3 85
2019-11-25 04:00:00 7.2 5 Sudeste 8 Sudeste 0 944.2 -0.6 81
2019-11-25 03:00:00 7.1 6 Sur 10 Sur 0 944.5 -0.9 76
2019-11-25 02:00:00 7.6 2 Sudeste 10 Sudeste 0 944.6 -0.5 70
2019-11-25 01:00:00 7.8 8 Sur 14 Sur 0 944.8 -0.3 68
2019-11-25 00:00:00 7.6 6 Sudoeste 14 Sudoeste 0 945.4 0.3 66
2019-11-24 23:00:00 8.1 10 Sur 18 Sur 0 945.1 -0.1 63
2019-11-24 22:00:00 8 12 Sur 20 Sudoeste 0 945.1 0 65
2019-11-24 21:00:00 8 8 Sur 19 Sudoeste 0 945.1 0.4 63
2019-11-24 20:00:00 8.4 6 Sur 14 Sudoeste 0 945.2 0.6 62
2019-11-24 19:00:00 8.8 9 Sudoeste 25 Oeste 0 945.1 0.3 59
2019-11-24 18:00:00 9.4 17 Oeste 36 Oeste 0 944.7 -0.1 56
2019-11-24 17:00:00 9.9 21 Oeste 39 Noroeste 0 944.6 -0.9 54
2019-11-24 16:00:00 10.3 22 Oeste 38 Oeste 0 944.8 -1 53
2019-11-24 15:00:00 11.6 19 Oeste 33 Oeste 0 944.8 -1.8 51
2019-11-24 14:00:00 10 15 Oeste 36 Oeste 0 945.5 -1 57
2019-11-24 13:00:00 9.5 22 Oeste 35 Oeste 0 945.8 -0.6 58
2019-11-24 12:00:00 9.4 15 Oeste 28 Noroeste 0 946.6 1 60
2019-11-24 11:00:00 7.9 14 Oeste 26 Oeste 0 946.5 1.6 65
2019-11-24 10:00:00 6.8 13 Oeste 19 Oeste 0 946.4 2.4 67
2019-11-24 09:00:00 6 11 Sudoeste 22 Sudoeste 0 945.6 2.1 69
2019-11-24 08:00:00 5.7 9 Sudoeste 21 Sudoeste 0 944.9 2 69
2019-11-24 07:00:00 5.8 13 Sudoeste 22 Oeste 0 944 1.4 70
2019-11-24 06:00:00 6.4 9 Sudoeste 24 Sur 0 943.5 0.9 68
2019-11-24 05:00:00 6.5 10 Sur 19 Sur 0 942.9 0.8 68
2019-11-24 04:00:00 6.8 11 Sudoeste 25 Oeste 0 942.6 0.7 66
2019-11-24 03:00:00 7.4 14 Oeste 24 Oeste 0 942.6 1.1 66
2019-11-24 02:00:00 7.4 5 Oeste 17 Oeste 0 942.1 1.5 66
2019-11-24 01:00:00 7.7 6 Oeste 23 Noroeste 0 941.9 1.7 63
2019-11-24 00:00:00 7.6 2 Sudoeste 16 Sudoeste 0 941.5 2.5 64
2019-11-23 23:00:00 7.9 12 Sudoeste 21 Sudoeste 0 940.6 2.3 63
2019-11-23 22:00:00 8 16 Oeste 24 Oeste 0 940.2 3 63
2019-11-23 21:00:00 7.9 6 Sudoeste 25 Oeste 0 939 2.5 62
2019-11-23 20:00:00 9 15 Oeste 33 Oeste 0 938.3 3 58
2019-11-23 19:00:00 9.1 18 Oeste 35 Oeste 0 937.2 3.1 57
2019-11-23 18:00:00 10.1 19 Oeste 39 Oeste 0 936.5 3 52
2019-11-23 17:00:00 11.6 27 Oeste 53 Oeste 0 935.3 2.2 46
2019-11-23 16:00:00 12.1 32 Oeste 53 Oeste 0 934.1 1.4 45
2019-11-23 15:00:00 11.4 30 Oeste 64 Oeste 0 933.5 1 48
2019-11-23 14:00:00 11 34 Oeste 64 Oeste 0 933.1 1.6 49
2019-11-23 13:00:00 9.6 35 Oeste 59 Oeste 0 932.7 2.8 53
2019-11-23 12:00:00 8.5 23 Oeste 48 Oeste 0 932.5 4.1 60
2019-11-23 11:00:00 7.9 30 Oeste 53 Oeste 0.2 931.5 4.5 63
2019-11-23 10:00:00 7.8 28 Oeste 47 Oeste 0 929.9 3.8 66
2019-11-23 09:00:00 7.7 18 Oeste 32 Oeste 0 928.4 3.3 70
2019-11-23 08:00:00 6.7 15 Oeste 25 Sudoeste 0.6 927 2.7 80
2019-11-23 07:00:00 6.3 15 Sudoeste 53 Oeste 1 926.1 1.9 82
2019-11-23 06:00:00 7.6 17 Sudoeste 39 Oeste 0 925.1 1.1 73
2019-11-23 05:00:00 8 19 Oeste 37 Oeste 0 924.3 -0.2 71
2019-11-23 04:00:00 6.6 9 Sur 14 Sudoeste 0 924.2 0.6 84
2019-11-23 03:00:00 7.1 11 Oeste 42 Sudoeste 0.8 924 -0.2 79
2019-11-23 02:00:00 7.2 21 Oeste 46 Oeste 3.4 924.5 0.4 86
2019-11-23 01:00:00 8.6 6 Sur 13 Sudeste 0 923.6 -0.9 78
2019-11-23 00:00:00 8 3 Noroeste 14 Sur 0 924.2 0 86
2019-11-22 23:00:00 8.1 9 Sur 14 Oeste 0.2 924.1 0.8 83
2019-11-22 22:00:00 8.7 4 Noroeste 49 Oeste 1.6 924.5 1.1 85
2019-11-22 21:00:00 10.6 15 Oeste 49 Oeste 1 924.2 0.7 79
2019-11-22 20:00:00 11.4 5 Norte 17 Sudeste 0.2 923.3 -1.2 80
2019-11-22 19:00:00 12.4 10 Sudeste 21 Sudeste 0 923.4 -2.1 74
2019-11-22 18:00:00 12.7 5 Sudeste 27 Sur 0 923.5 -2.5 69
2019-11-22 17:00:00 13.5 14 Sur 26 Sur 0.6 924.5 -2.8 66
2019-11-22 16:00:00 13.4 13 Sur 29 Sur 0.2 925.5 -3.6 66
2019-11-22 15:00:00 13.5 14 Sur 32 Sur 0 926 -4.9 60
2019-11-22 14:00:00 13.7 12 Sur 26 Sudeste 0 927.3 -5.1 60
2019-11-22 13:00:00 10.9 5 Sur 24 Sudeste 0 929.1 -4.4 71
2019-11-22 12:00:00 7.3 6 Sur 17 Sur 0 930.9 -3.7 86
2019-11-22 11:00:00 6.3 5 Nordeste 9 Norte 0 932.4 -2.7 88
2019-11-22 10:00:00 4.4 5 Nordeste 8 Nordeste 0 933.5 -2.4 90
2019-11-22 09:00:00 3.1 3 Sudoeste 5 Sudoeste 0 934.6 -2 91
2019-11-22 08:00:00 3.1 2 Norte 4 Norte 0 935.1 -2 91
2019-11-22 07:00:00 2.7 3 Oeste 6 Oeste 0 935.9 -1.9 91
2019-11-22 06:00:00 2.6 0 Calma 6 Nordeste 0 936.6 -1.7 91
2019-11-22 05:00:00 2.5 4 Nordeste 7 Norte 0 937.1 -1.5 91
2019-11-22 04:00:00 2.5 5 Sudeste 8 Sudeste 0 937.8 -1.6 90
2019-11-22 03:00:00 2.8 2 Oeste 5 Este 0 938.3 -1.2 89
2019-11-22 02:00:00 3.4 2 Sur 5 Sudeste 0 938.6 -1.7 88
2019-11-22 01:00:00 3.8 0 Calma 5 Norte 0 939.4 -0.8 87
2019-11-22 00:00:00 4.3 2 Norte 4 Noroeste 0 939.5 -0.2 86
2019-11-21 23:00:00 4.5 3 Oeste 5 Oeste 0 940.3 0.8 85
2019-11-21 22:00:00 4.9 5 Este 7 Este 0 940.2 1 83
2019-11-21 21:00:00 5.9 4 Este 7 Nordeste 0 939.7 0.6 80
2019-11-21 20:00:00 7.7 3 Sur 10 Sudoeste 0 939.5 0.7 74
2019-11-21 19:00:00 9.1 5 Sudoeste 14 Oeste 0 939.2 0.6 69
2019-11-21 18:00:00 10.1 9 Oeste 18 Sudoeste 0 939.1 0.7 65
2019-11-21 17:00:00 11.3 12 Oeste 23 Oeste 0 938.8 0.2 61
2019-11-21 16:00:00 12.6 15 Oeste 28 Oeste 0 938.6 -0.6 55
2019-11-21 15:00:00 10.6 6 Oeste 13 Oeste 0 938.4 -1.5 64
2019-11-21 14:00:00 10.3 0 Calma 7 Sudeste 0 938.6 -1.7 67
2019-11-21 13:00:00 9.5 4 Sudoeste 9 Sur 0 939.2 -1 68
2019-11-21 12:00:00 7.3 2 Oeste 5 Nordeste 0 939.9 -0.4 83
2019-11-21 11:00:00 5.5 3 Nordeste 7 Nordeste 0 940.3 0.4 89
2019-11-21 10:00:00 3.8 3 Sudeste 4 Sudeste 0 940.2 0.6 90
2019-11-21 09:00:00 2.7 2 Sur 6 Sur 0 940.3 0.8 90
2019-11-21 08:00:00 -- -- -- -- -- -- -- -- --
2019-11-21 07:00:00 -- -- -- -- -- -- -- -- --
2019-11-21 06:00:00 -- -- -- -- -- -- -- -- --
2019-11-21 05:00:00 -- -- -- -- -- -- -- -- --
2019-11-21 04:00:00 -- -- -- -- -- -- -- -- --
2019-11-21 03:00:00 -- -- -- -- -- -- -- -- --
2019-11-21 02:00:00 -- -- -- -- -- -- -- -- --
2019-11-21 01:00:00 -- -- -- -- -- -- -- -- --
2019-11-21 00:00:00 -- -- -- -- -- -- -- -- --
2019-11-20 23:00:00 -- -- -- -- -- -- -- -- --
2019-11-20 22:00:00 -- -- -- -- -- -- -- -- --
2019-11-20 21:00:00 -- -- -- -- -- -- -- -- --
2019-11-20 20:00:00 -- -- -- -- -- -- -- -- --
2019-11-20 19:00:00 9.6 5 Sudoeste 9 Oeste 0 939.5 -0.1 55
2019-11-20 18:00:00 10.3 6 Sudoeste 13 Sudoeste 0 939.6 -0.2 51
2019-11-20 17:00:00 10.9 4 Sudoeste 10 Sudoeste 0 939.6 -1.2 52
2019-11-20 16:00:00 11.8 2 Este 7 Este 0 939.6 -2.1 48
2019-11-20 15:00:00 11 5 Nordeste 12 Nordeste 0 939.8 -3.1 51
2019-11-20 14:00:00 10.6 6 Oeste 11 Oeste 0 940.8 -2.9 52
2019-11-20 13:00:00 7.9 5 Nordeste 9 Nordeste 0 941.7 -2.3 61
2019-11-20 12:00:00 5.6 2 Noroeste 6 Noroeste 0 942.9 -1.2 71
2019-11-20 11:00:00 2.8 2 Oeste 5 Oeste 0 943.7 -0.1 87
2019-11-20 10:00:00 0.5 3 Noroeste 4 Noroeste 0 944 0 90
2019-11-20 09:00:00 -0.6 0 Calma 3 Norte 0 944.1 0 90
2019-11-20 08:00:00 -0.9 0 Calma 4 Norte 0 943.8 -0.6 89
2019-11-20 07:00:00 -0.4 0 Calma 4 Sudoeste 0 944 -0.8 89
2019-11-20 06:00:00 0 3 Sudoeste 4 Sudoeste 0 944.1 -0.9 88
2019-11-20 05:00:00 0.4 2 Nordeste 5 Nordeste 0 944.4 -0.9 87
2019-11-20 04:00:00 0.7 3 Este 5 Este 0 944.8 -1 87
2019-11-20 03:00:00 1.2 4 Este 8 Sur 0 945 -1.2 85
2019-11-20 02:00:00 1.8 0 Calma 4 Nordeste 0 945.3 -1.3 83
2019-11-20 01:00:00 2.5 4 Nordeste 5 Norte 0 945.8 -0.8 83
2019-11-20 00:00:00 3.2 0 Calma 4 Sudoeste 0 946.2 -0.3 80
2019-11-19 23:00:00 3.8 3 Este 8 Nordeste 0 946.6 0.3 78
2019-11-19 22:00:00 5.3 5 Sudoeste 10 Sur 0 946.6 0.6 72
2019-11-19 21:00:00 5.6 4 Sur 13 Sur 0 946.5 0.8 68
2019-11-19 20:00:00 6.6 6 Sur 11 Sudoeste 0 946.3 0.6 64
2019-11-19 19:00:00 7.3 7 Sudoeste 9 Sur 0 946 0 61
2019-11-19 18:00:00 8.7 5 Sudoeste 13 Oeste 0 945.7 -0.3 55
2019-11-19 17:00:00 10.6 10 Oeste 23 Oeste 0 945.7 -1 48
2019-11-19 16:00:00 11.5 12 Sudoeste 23 Sudoeste 0 946 -1.6 45
2019-11-19 15:00:00 11.6 14 Sudoeste 26 Sudoeste 0 946 -2.8 43
2019-11-19 14:00:00 10.9 12 Sudoeste 23 Sudoeste 0 946.7 -2.8 49
2019-11-19 13:00:00 9.3 11 Sudoeste 24 Oeste 0 947.6 -2 53
2019-11-19 12:00:00 7.6 7 Sudoeste 17 Oeste 0 948.8 -0.7 60
2019-11-19 11:00:00 4.2 2 Sudoeste 12 Nordeste 0 949.5 0.4 78
2019-11-19 10:00:00 0.1 4 Sur 7 Sur 0 949.6 0.8 89
2019-11-19 09:00:00 -1.8 4 Sudoeste 7 Nordeste 0 949.5 0.9 89
2019-11-19 08:00:00 -2 6 Sudeste 9 Este 0 949.1 0.6 89
2019-11-19 07:00:00 -1.4 4 Norte 6 Norte 0 948.8 0.2 88
2019-11-19 06:00:00 -1.4 3 Norte 7 Este 0 948.6 -0.4 88
2019-11-19 05:00:00 -1.1 3 Este 9 Nordeste 0 948.5 -0.5 88
2019-11-19 04:00:00 -0.6 8 Nordeste 10 Nordeste 0 948.6 -0.5 87
2019-11-19 03:00:00 -0.1 3 Sur 7 Nordeste 0 949 0 85
2019-11-19 02:00:00 0.1 3 Este 9 Nordeste 0 949 0.1 84
2019-11-19 01:00:00 0.8 6 Este 9 Nordeste 0 949.1 0.6 83
2019-11-19 00:00:00 1.4 4 Nordeste 10 Norte 0 949 1 81
2019-11-18 23:00:00 2.7 5 Noroeste 14 Sur 0 948.9 1.4 74
2019-11-18 22:00:00 3.5 6 Sur 9 Sur 0 948.5 1.3 72
2019-11-18 21:00:00 4.6 6 Sur 10 Sudoeste 0 948 1.1 68
2019-11-18 20:00:00 5.4 9 Oeste 22 Noroeste 0 947.5 1.2 64
2019-11-18 19:00:00 6.9 19 Noroeste 31 Noroeste 0 947.2 1.6 55
2019-11-18 18:00:00 7.6 19 Noroeste 33 Norte 0 946.9 1.6 57
2019-11-18 17:00:00 9.3 18 Noroeste 40 Noroeste 0 946.3 1.2 48
2019-11-18 16:00:00 10.1 23 Noroeste 44 Noroeste 0 945.6 0.8 45
2019-11-18 15:00:00 9.6 28 Noroeste 49 Noroeste 0 945.3 0.1 49
2019-11-18 14:00:00 10 30 Noroeste 48 Noroeste 0 945.1 -0.3 46
2019-11-18 13:00:00 10.2 15 Noroeste 40 Oeste 0 944.8 0.1 49
2019-11-18 12:00:00 8.9 8 Nordeste 19 Oeste 0 945.2 0.9 55
2019-11-18 11:00:00 6.2 8 Oeste 28 Oeste 0 945.4 1.8 72
2019-11-18 10:00:00 4.8 7 Sudoeste 17 Oeste 0 944.7 1.6 78
2019-11-18 09:00:00 3.7 3 Norte 22 Oeste 0 944.3 1.7 83
2019-11-18 08:00:00 3.6 7 Oeste 15 Oeste 0 943.6 1.2 83
2019-11-18 07:00:00 3.8 10 Oeste 16 Oeste 0 943.1 1.3 82
2019-11-18 06:00:00 4.6 4 Noroeste 10 Sudoeste 0 942.6 1.1 82
2019-11-18 05:00:00 4.8 5 Sudoeste 12 Sudoeste 0 942.4 1.5 80
2019-11-18 04:00:00 4.8 8 Sudoeste 18 Sudoeste 0 941.8 1 82
2019-11-18 03:00:00 4.6 6 Oeste 12 Oeste 0 941.5 1 87
2019-11-18 02:00:00 4.1 3 Noroeste 10 Sudoeste 0 940.9 0.4 90
2019-11-18 01:00:00 3.7 6 Sur 12 Sur 0 940.8 -0.2 91
2019-11-18 00:00:00 4.4 3 Noroeste 10 Oeste 0 940.5 -0.4 89
2019-11-17 23:00:00 5.1 3 Sudeste 8 Sur 0 940.5 -0.6 89
2019-11-17 22:00:00 5.9 3 Norte 7 Oeste 0 941 -0.1 88
2019-11-17 21:00:00 6.3 3 Sur 11 Nordeste 0 940.9 -0.4 87
2019-11-17 20:00:00 6.3 8 Nordeste 14 Nordeste 0.2 941.1 -0.3 86
2019-11-17 19:00:00 7 4 Norte 8 Oeste 0.6 941.1 -0.4 81
2019-11-17 18:00:00 7.6 4 Noroeste 6 Norte 0 941.3 -0.4 75
2019-11-17 17:00:00 7.8 4 Sudoeste 19 Sudoeste 0 941.4 -0.3 72
2019-11-17 16:00:00 7.9 7 Sudoeste 26 Sudoeste 0 941.5 -1 74
2019-11-17 15:00:00 8.4 17 Oeste 39 Oeste 0 941.7 -1.7 68
2019-11-17 14:00:00 9.9 25 Oeste 42 Oeste 0 941.7 -2.3 57
2019-11-17 13:00:00 9.7 14 Oeste 24 Oeste 0 942.5 -2.4 54
2019-11-17 12:00:00 9.1 16 Oeste 31 Oeste 0 943.4 -1.1 56
2019-11-17 11:00:00 7.4 13 Oeste 24 Oeste 0 944 -0.8 60
2019-11-17 10:00:00 5.7 8 Sudoeste 14 Sudoeste 0 944.9 0 65
2019-11-17 09:00:00 4.9 6 Sudoeste 13 Sudoeste 0 944.5 -0.6 66
2019-11-17 08:00:00 4.1 3 Oeste 13 Oeste 0 944.8 -0.4 70
2019-11-17 07:00:00 3.8 5 Sudoeste 15 Oeste 0 944.9 -0.9 73
2019-11-17 06:00:00 3.4 7 Sudoeste 15 Sur 0 945.1 -0.6 74
2019-11-17 05:00:00 3.2 5 Este 15 Oeste 0 945.2 -0.5 75
2019-11-17 04:00:00 3.3 3 Sudoeste 13 Sudoeste 0 945.8 0 75
2019-11-17 03:00:00 3.9 6 Oeste 19 Oeste 0 945.7 -0.6 72
2019-11-17 02:00:00 4.3 8 Oeste 15 Sudoeste 0 945.7 -0.3 70
2019-11-17 01:00:00 4.7 11 Oeste 22 Sudoeste 0 945.8 -0.3 69
2019-11-17 00:00:00 5.1 10 Sudoeste 19 Oeste 0 946.3 0.3 66
2019-11-16 23:00:00 5.7 8 Oeste 16 Sudoeste 0 946 0.3 63
2019-11-16 22:00:00 5.9 7 Sudoeste 15 Oeste 0 946.1 0.6 62
2019-11-16 21:00:00 6.7 8 Oeste 19 Oeste 0 946 0.7 59
2019-11-16 20:00:00 5.5 12 Oeste 17 Oeste 0 945.7 0.5 65
2019-11-16 19:00:00 5.8 10 Oeste 21 Oeste 0 945.5 0.1 63
2019-11-16 18:00:00 6.9 10 Oeste 20 Sudoeste 0 945.3 0.2 59
2019-11-16 17:00:00 7.8 9 Sudoeste 21 Sudoeste 0 945.2 0.4 58
2019-11-16 16:00:00 7 10 Oeste 29 Oeste 0 945.4 0.2 60
2019-11-16 15:00:00 6.6 19 Oeste 37 Oeste 0 945.1 -0.7 59
2019-11-16 14:00:00 7.3 19 Oeste 30 Oeste 0 944.8 -1.1 58
2019-11-16 13:00:00 7.1 13 Sudoeste 25 Oeste 0 945.2 0 60
2019-11-16 12:00:00 6.5 15 Oeste 26 Sudoeste 0 945.8 1.2 61
2019-11-16 11:00:00 4.6 15 Oeste 26 Sudoeste 0 945.9 1.9 70
2019-11-16 10:00:00 2.1 6 Sudoeste 9 Sudoeste 0 945.2 2.3 86
2019-11-16 09:00:00 0.1 3 Sur 8 Sur 0 944.6 2.4 90
2019-11-16 08:00:00 -0.1 4 Sudoeste 10 Sur 0 944 2.4 90
2019-11-16 07:00:00 0 7 Sur 11 Sur 0 942.9 1.9 90
2019-11-16 06:00:00 0.2 4 Sur 7 Este 0 942.2 1.6 89
2019-11-16 05:00:00 1 3 Este 12 Sur 0 941.6 1.8 87
2019-11-16 04:00:00 1.9 4 Sudeste 6 Sudeste 0 941 1.4 86
2019-11-16 03:00:00 2.4 6 Este 10 Nordeste 0 940.6 1.4 85
2019-11-16 02:00:00 3.4 7 Norte 12 Nordeste 0 939.8 1.1 83
2019-11-16 01:00:00 4.2 5 Sur 9 Sur 0 939.6 1.4 80
2019-11-16 00:00:00 4.5 5 Oeste 13 Noroeste 0 939.2 1.7 77
2019-11-15 23:00:00 4.7 7 Sudoeste 15 Oeste 0 938.7 1.8 78
2019-11-15 22:00:00 4.9 4 Sur 11 Sudoeste 0 938.2 2.1 75
2019-11-15 21:00:00 4.6 6 Sur 14 Sudoeste 0 937.5 1.8 75
2019-11-15 20:00:00 5.2 5 Sur 23 Oeste 0 936.9 1.7 71
2019-11-15 19:00:00 6.2 13 Oeste 19 Oeste 0 936.1 1.3 68
2019-11-15 18:00:00 7 12 Oeste 31 Oeste 0 935.7 1.2 66
2019-11-15 17:00:00 8.4 14 Oeste 29 Oeste 0 935.2 0.5 56
2019-11-15 16:00:00 8.7 15 Oeste 35 Oeste 0 934.8 0.1 56
2019-11-15 15:00:00 8.1 20 Oeste 47 Oeste 0 934.5 -0.5 56
2019-11-15 14:00:00 7.7 28 Oeste 54 Oeste 0 934.7 -0.3 59
2019-11-15 13:00:00 7.6 30 Oeste 53 Oeste 0 934.7 -0.3 58
2019-11-15 12:00:00 6.7 30 Oeste 51 Oeste 0 935 0.3 63
2019-11-15 11:00:00 6.3 23 Oeste 44 Oeste 0 935 0.9 66
2019-11-15 10:00:00 5.7 19 Oeste 33 Oeste 0 935 0.9 67
2019-11-15 09:00:00 5 10 Oeste 21 Oeste 0 934.7 0.8 72
2019-11-15 08:00:00 3.9 9 Sudoeste 17 Oeste 0 934.1 0.2 75
2019-11-15 07:00:00 3.5 7 Sudoeste 13 Sur 0 934.1 0.5 74
2019-11-15 06:00:00 3 9 Oeste 15 Oeste 0 933.9 0.4 75
2019-11-15 05:00:00 3.9 7 Sudoeste 21 Oeste 0 933.9 0.7 74
2019-11-15 04:00:00 4.3 6 Oeste 13 Sudoeste 0 933.6 0.7 76
2019-11-15 03:00:00 4.3 5 Sur 13 Oeste 0 933.5 0.9 76
2019-11-15 02:00:00 4.2 6 Sur 15 Oeste 0 933.2 1.1 75
2019-11-15 01:00:00 4.3 3 Este 16 Oeste 0 932.9 1.2 76
2019-11-15 00:00:00 4.2 7 Sudoeste 15 Sudoeste 0 932.6 1.4 76